createdAt,value
2019-02-26T00:01:21.089Z,33.67
2019-02-26T00:03:52.314Z,36.58
2019-02-26T00:06:25.355Z,32.45
2019-02-26T00:08:58.791Z,24.90
2019-02-26T00:11:30.876Z,26.62
2019-02-26T00:14:02.246Z,24.23
2019-02-26T00:16:37.700Z,28.60
2019-02-26T00:19:07.435Z,31.60
2019-02-26T00:21:39.607Z,30.40
2019-02-26T00:24:12.931Z,26.27
2019-02-26T00:26:45.156Z,29.15
2019-02-26T00:29:16.537Z,46.10
2019-02-26T00:31:48.989Z,83.37
2019-02-26T00:34:20.624Z,47.27
2019-02-26T00:36:51.982Z,30.43
2019-02-26T00:39:25.041Z,26.05
2019-02-26T00:41:58.227Z,27.45
2019-02-26T00:44:32.217Z,23.22
2019-02-26T00:47:04.832Z,22.75
2019-02-26T00:49:35.951Z,47.43
2019-02-26T00:52:08.793Z,23.05
2019-02-26T00:54:40.187Z,30.45
2019-02-26T00:57:12.263Z,53.87
2019-02-26T00:59:45.912Z,25.12
2019-02-26T01:02:17.213Z,21.33
2019-02-26T01:04:50.483Z,20.15
2019-02-26T01:07:23.768Z,22.35
2019-02-26T01:09:56.923Z,23.90
2019-02-26T01:12:28.505Z,22.87
2019-02-26T01:15:00.249Z,30.35
2019-02-26T01:17:33.262Z,27.13
2019-02-26T01:20:05.755Z,29.60
2019-02-26T01:22:37.846Z,27.62
2019-02-26T01:25:12.575Z,21.77
2019-02-26T01:27:43.702Z,21.30
2019-02-26T01:30:20.753Z,22.42
2019-02-26T01:32:49.363Z,21.52
2019-02-26T01:35:20.626Z,23.62
2019-02-26T01:37:53.662Z,22.42
2019-02-26T01:40:25.793Z,22.90
2019-02-26T01:43:00.497Z,23.12
2019-02-26T01:45:32.406Z,19.23
2019-02-26T01:48:04.499Z,23.55
2019-02-26T01:50:37.965Z,27.15
2019-02-26T01:53:09.501Z,23.38
2019-02-26T01:55:42.124Z,25.43
2019-02-26T01:58:16.055Z,23.75
2019-02-26T02:00:46.724Z,24.75
2019-02-26T02:03:18.644Z,26.62
2019-02-26T02:05:53.013Z,24.45
2019-02-26T02:08:24.970Z,22.02
2019-02-26T02:10:59.373Z,22.55
2019-02-26T02:13:30.583Z,28.20
2019-02-26T02:16:04.467Z,30.68
2019-02-26T02:18:36.637Z,24.35
2019-02-26T02:21:08.346Z,19.80
2019-02-26T02:23:39.674Z,23.95
2019-02-26T02:26:13.351Z,24.05
2019-02-26T02:28:44.276Z,18.05
2019-02-26T02:31:15.665Z,20.32
2019-02-26T02:33:47.010Z,19.67
2019-02-26T02:36:20.627Z,16.32
2019-02-26T02:38:52.347Z,16.75
2019-02-26T02:41:24.110Z,16.65
2019-02-26T02:43:55.254Z,17.20
2019-02-26T02:46:27.439Z,18.45
2019-02-26T02:48:58.650Z,16.27
2019-02-26T02:51:31.477Z,17.10
2019-02-26T02:54:02.810Z,18.32
2019-02-26T02:56:36.159Z,16.80
2019-02-26T02:59:08.829Z,19.87
2019-02-26T03:01:39.979Z,19.65
2019-02-26T03:04:14.706Z,17.87
2019-02-26T03:06:58.024Z,17.40
2019-02-26T03:09:28.711Z,17.07
2019-02-26T03:12:00.131Z,18.48
2019-02-26T03:14:33.801Z,19.90
2019-02-26T03:17:06.432Z,19.45
2019-02-26T03:19:40.367Z,20.25
2019-02-26T03:22:12.909Z,23.38
2019-02-26T03:24:44.161Z,19.55
2019-02-26T03:27:15.504Z,21.45
2019-02-26T03:29:49.799Z,20.72
2019-02-26T03:32:20.301Z,19.25
2019-02-26T03:34:52.943Z,17.57
2019-02-26T03:37:25.807Z,19.67
2019-02-26T03:39:58.074Z,30.90
2019-02-26T03:42:33.255Z,19.87
2019-02-26T03:45:04.549Z,22.45
2019-02-26T03:47:39.968Z,19.77
2019-02-26T03:50:10.697Z,17.25
2019-02-26T03:52:42.349Z,18.25
2019-02-26T03:55:18.287Z,18.57
2019-02-26T03:57:50.393Z,18.92
2019-02-26T04:00:20.600Z,22.85
2019-02-26T04:02:52.237Z,26.05
2019-02-26T04:05:23.785Z,18.35
2019-02-26T04:07:56.839Z,20.43
2019-02-26T04:10:28.808Z,26.60
2019-02-26T04:13:00.321Z,24.25
2019-02-26T04:15:33.498Z,28.12
2019-02-26T04:18:04.522Z,24.57
2019-02-26T04:20:35.586Z,22.62
2019-02-26T04:23:08.970Z,21.68
2019-02-26T04:26:01.743Z,22.62
2019-02-26T04:28:48.172Z,20.97
2019-02-26T04:32:01.909Z,18.37
2019-02-26T04:35:02.465Z,28.85
2019-02-26T04:38:14.746Z,22.98
2019-02-26T04:41:06.846Z,33.10
2019-02-26T04:44:03.820Z,116.65
2019-02-26T04:47:03.492Z,108.85
2019-02-26T04:49:36.191Z,83.90
2019-02-26T04:52:10.207Z,68.97
2019-02-26T04:54:39.717Z,57.55
2019-02-26T04:57:11.181Z,63.05
2019-02-26T04:59:44.007Z,94.62
2019-02-26T05:02:16.502Z,77.67
2019-02-26T05:04:47.915Z,37.03
2019-02-26T05:07:19.443Z,38.53
2019-02-26T05:09:53.130Z,31.90
2019-02-26T05:12:25.320Z,33.13
2019-02-26T05:14:56.730Z,44.23
2019-02-26T05:17:30.222Z,57.10
2019-02-26T05:20:00.819Z,130.70
2019-02-26T05:22:33.355Z,74.45
2019-02-26T05:25:07.467Z,51.90
2019-02-26T05:27:39.990Z,35.85
2019-02-26T05:30:15.553Z,38.17
2019-02-26T05:32:44.900Z,38.15
2019-02-26T05:35:19.640Z,31.87
2019-02-26T05:37:50.252Z,31.73
2019-02-26T05:40:22.597Z,33.13
2019-02-26T05:42:56.147Z,37.53
2019-02-26T05:45:29.899Z,38.50
2019-02-26T05:48:00.578Z,52.05
2019-02-26T05:50:34.675Z,51.83
2019-02-26T05:53:07.540Z,36.05
2019-02-26T05:55:42.259Z,38.65
2019-02-26T05:58:15.830Z,31.95
2019-02-26T06:00:45.916Z,31.57
2019-02-26T06:03:18.704Z,33.25
2019-02-26T06:05:51.902Z,34.50
2019-02-26T06:08:25.664Z,36.00
2019-02-26T06:10:56.072Z,45.52
2019-02-26T06:13:29.130Z,31.48
2019-02-26T06:16:02.181Z,27.85
2019-02-26T06:18:36.730Z,24.90
2019-02-26T06:21:07.909Z,28.90
2019-02-26T06:23:39.383Z,29.85
2019-02-26T06:26:14.835Z,27.27
2019-02-26T06:28:46.175Z,27.05
2019-02-26T06:31:19.417Z,34.08
2019-02-26T06:34:05.711Z,34.23
2019-02-26T06:36:35.520Z,33.03
2019-02-26T06:39:07.101Z,35.05
2019-02-26T06:41:41.518Z,29.60
2019-02-26T06:44:11.463Z,31.50
2019-02-26T06:46:42.597Z,33.80
2019-02-26T06:49:14.994Z,17.60
2019-02-26T06:51:47.524Z,17.50
2019-02-26T06:54:22.153Z,23.67
2019-02-26T06:56:52.900Z,19.03
2019-02-26T06:59:33.805Z,28.50
2019-02-26T07:02:03.577Z,17.60
2019-02-26T07:04:35.058Z,17.83
2019-02-26T07:07:09.018Z,18.00
2019-02-26T07:09:41.439Z,18.80
2019-02-26T07:12:12.328Z,19.90
2019-02-26T07:14:43.569Z,17.77
2019-02-26T07:17:14.871Z,17.30
2019-02-26T07:19:46.340Z,19.80
2019-02-26T07:22:18.349Z,20.03
2019-02-26T07:24:51.964Z,24.90
2019-02-26T07:27:22.658Z,44.50
2019-02-26T07:29:54.090Z,32.60
2019-02-26T07:32:25.439Z,42.08
2019-02-26T07:34:58.101Z,41.08
2019-02-26T07:37:31.456Z,31.65
2019-02-26T07:40:03.737Z,21.37
2019-02-26T07:42:37.283Z,21.87
2019-02-26T07:45:14.930Z,44.23
2019-02-26T07:47:42.220Z,78.87
2019-02-26T07:50:14.623Z,30.60
2019-02-26T07:52:47.379Z,112.23
2019-02-26T07:55:19.551Z,36.00
2019-02-26T07:57:53.169Z,49.63
2019-02-26T08:00:25.255Z,57.30
2019-02-26T08:02:58.007Z,33.37
2019-02-26T08:05:29.837Z,27.63
2019-02-26T08:08:01.013Z,40.33
2019-02-26T08:10:35.141Z,27.52
2019-02-26T08:13:07.685Z,19.17
2019-02-26T08:15:39.884Z,18.87
2019-02-26T08:18:11.361Z,22.57
2019-02-26T08:20:42.732Z,26.63
2019-02-26T08:23:14.783Z,28.43
2019-02-26T08:25:46.885Z,15.50
2019-02-26T08:28:20.307Z,17.17
2019-02-26T08:30:52.899Z,27.87
2019-02-26T08:33:23.855Z,21.73
2019-02-26T08:35:56.089Z,25.47
2019-02-26T08:38:30.223Z,41.27
2019-02-26T08:41:01.595Z,59.87
2019-02-26T08:43:34.033Z,41.43
2019-02-26T08:46:07.282Z,43.40
2019-02-26T08:48:39.473Z,36.47
2019-02-26T08:51:14.283Z,71.37
2019-02-26T08:53:44.455Z,39.73
2019-02-26T08:56:18.755Z,39.23
2019-02-26T08:58:50.255Z,38.40
2019-02-26T09:01:32.587Z,76.07
2019-02-26T09:04:03.753Z,24.03
2019-02-26T09:06:35.118Z,21.27
2019-02-26T09:09:09.132Z,23.87
2019-02-26T09:11:40.530Z,33.60
2019-02-26T09:14:14.002Z,17.83
2019-02-26T09:16:47.688Z,20.43
2019-02-26T09:19:17.331Z,17.07
2019-02-26T09:21:50.649Z,27.83
2019-02-26T09:24:21.245Z,87.60
2019-02-26T09:26:54.699Z,42.07
2019-02-26T09:29:25.476Z,40.07
2019-02-26T09:31:57.802Z,75.17
2019-02-26T09:34:31.562Z,26.00
2019-02-26T09:37:03.507Z,39.30
2019-02-26T09:39:36.482Z,31.00
2019-02-26T09:42:09.253Z,26.77
2019-02-26T09:44:40.731Z,23.87
2019-02-26T09:47:12.085Z,20.33
2019-02-26T09:49:44.295Z,29.87
2019-02-26T09:52:15.347Z,21.23
2019-02-26T09:54:57.798Z,33.33
2019-02-26T09:57:29.198Z,29.23
2019-02-26T10:00:02.945Z,37.17
2019-02-26T10:02:35.896Z,35.07
2019-02-26T10:05:08.647Z,40.30
2019-02-26T10:07:40.490Z,23.07
2019-02-26T10:10:14.463Z,40.67
2019-02-26T10:12:46.898Z,34.70
2019-02-26T10:15:18.238Z,46.63
2019-02-26T10:17:49.483Z,21.60
2019-02-26T10:20:24.833Z,15.23
2019-02-26T10:22:57.157Z,15.43
2019-02-26T10:25:29.290Z,21.87
2019-02-26T10:28:03.044Z,23.97
2019-02-26T10:30:33.971Z,20.20
2019-02-26T10:33:08.193Z,20.83
2019-02-26T10:35:44.372Z,19.07
2019-02-26T10:38:13.497Z,17.87
2019-02-26T10:40:53.220Z,18.80
2019-02-26T10:43:17.603Z,17.73
2019-02-26T10:45:50.666Z,16.30
2019-02-26T10:48:24.508Z,16.93
2019-02-26T10:50:54.902Z,21.97
2019-02-26T10:53:25.963Z,16.70
2019-02-26T10:55:57.388Z,19.43
2019-02-26T10:58:28.843Z,20.90
2019-02-26T11:01:02.501Z,19.03
2019-02-26T11:03:37.914Z,16.43
2019-02-26T11:06:08.148Z,22.10
2019-02-26T11:08:41.023Z,16.67
2019-02-26T11:11:13.958Z,27.37
2019-02-26T11:13:51.007Z,20.83
2019-02-26T11:16:25.282Z,40.80
2019-02-26T11:18:52.440Z,19.17
2019-02-26T11:21:23.438Z,16.13
2019-02-26T11:23:54.613Z,17.60
2019-02-26T11:26:25.931Z,24.77
2019-02-26T11:28:57.599Z,21.17
2019-02-26T11:31:28.747Z,20.50
2019-02-26T11:34:03.315Z,17.47
2019-02-26T11:36:34.945Z,17.60
2019-02-26T11:39:09.253Z,17.83
2019-02-26T11:41:41.310Z,19.00
2019-02-26T11:44:15.559Z,17.70
2019-02-26T11:47:05.126Z,18.27
2019-02-26T11:49:36.940Z,18.10
2019-02-26T11:52:09.085Z,20.63
2019-02-26T11:54:42.063Z,15.87
2019-02-26T11:57:15.188Z,15.93
2019-02-26T11:59:47.433Z,21.53
2019-02-26T12:02:25.212Z,18.63
2019-02-26T12:04:51.542Z,16.07
2019-02-26T12:07:24.718Z,17.97
2019-02-26T12:09:57.766Z,19.03
2019-02-26T12:12:30.953Z,16.70
2019-02-26T12:15:04.158Z,20.10
2019-02-26T12:17:36.314Z,20.17
2019-02-26T12:20:09.700Z,25.53
2019-02-26T12:22:41.733Z,18.43
2019-02-26T12:25:14.052Z,17.90
2019-02-26T12:27:45.647Z,17.00
2019-02-26T12:30:20.705Z,24.17
2019-02-26T12:32:53.050Z,19.33
2019-02-26T12:35:25.270Z,17.80
2019-02-26T12:37:59.372Z,20.33
2019-02-26T12:40:29.712Z,19.57
2019-02-26T12:43:01.983Z,20.17
2019-02-26T12:45:37.271Z,17.80
2019-02-26T12:48:09.872Z,26.47
2019-02-26T12:50:40.412Z,21.43
2019-02-26T12:53:14.955Z,21.53
2019-02-26T12:55:46.090Z,21.17
2019-02-26T12:58:20.068Z,19.60
2019-02-26T13:01:01.411Z,19.87
2019-02-26T13:03:35.222Z,18.23
2019-02-26T13:06:08.685Z,21.07
2019-02-26T13:08:39.868Z,22.00
2019-02-26T13:11:14.018Z,23.07
2019-02-26T13:13:45.324Z,26.27
2019-02-26T13:16:17.700Z,24.70
2019-02-26T13:18:51.672Z,19.40
2019-02-26T13:21:23.361Z,22.00
2019-02-26T13:23:58.692Z,23.77
2019-02-26T13:26:34.604Z,21.27
2019-02-26T13:29:01.101Z,21.20
2019-02-26T13:34:05.585Z,23.30
2019-02-26T13:36:39.704Z,20.10
2019-02-26T13:39:10.891Z,24.70
2019-02-26T13:41:42.453Z,19.90
2019-02-26T13:44:13.542Z,20.70
2019-02-26T13:46:44.918Z,23.13
2019-02-26T13:49:16.040Z,24.00
2019-02-26T13:51:47.420Z,26.20
2019-02-26T13:54:18.834Z,22.73
2019-02-26T13:56:50.048Z,27.67
2019-02-26T13:59:21.165Z,25.13
2019-02-26T14:01:52.554Z,24.90
2019-02-26T14:04:24.095Z,20.50
2019-02-26T14:06:55.531Z,17.70
2019-02-26T14:09:28.725Z,27.97
2019-02-26T14:12:00.189Z,27.63
2019-02-26T14:14:31.502Z,33.20
2019-02-26T14:17:02.765Z,33.30
2019-02-26T14:19:34.222Z,27.03
2019-02-26T14:22:05.566Z,26.10
2019-02-26T14:24:37.344Z,25.13
2019-02-26T14:27:08.802Z,22.57
2019-02-26T14:29:40.040Z,21.87
2019-02-26T14:32:11.494Z,21.97
2019-02-26T14:34:42.997Z,25.33
2019-02-26T14:37:14.212Z,44.07
2019-02-26T14:39:45.570Z,24.70
2019-02-26T14:42:16.816Z,23.97
2019-02-26T14:44:48.144Z,23.40
2019-02-26T14:47:19.366Z,29.00
2019-02-26T14:49:51.374Z,20.23
2019-02-26T14:52:22.605Z,25.50
2019-02-26T14:54:53.940Z,20.20
2019-02-26T14:57:25.368Z,20.70
2019-02-26T14:59:56.594Z,22.77
2019-02-26T15:02:27.847Z,22.10
2019-02-26T15:04:59.112Z,19.60
2019-02-26T15:07:30.847Z,29.97
2019-02-26T15:10:03.831Z,27.47
2019-02-26T15:12:35.738Z,24.10
2019-02-26T15:15:07.506Z,24.90
2019-02-26T15:17:39.029Z,28.57
2019-02-26T15:20:12.577Z,25.23
2019-02-26T15:22:44.027Z,22.67
2019-02-26T15:25:20.659Z,31.30
2019-02-26T15:27:52.470Z,25.10
2019-02-26T15:30:24.459Z,29.17
2019-02-26T15:32:56.060Z,31.90
2019-02-26T15:35:28.331Z,69.93
2019-02-26T15:38:00.010Z,84.37
2019-02-26T15:40:31.645Z,75.13
2019-02-26T15:43:03.828Z,44.30
2019-02-26T15:45:35.478Z,51.23
2019-02-26T15:48:06.977Z,42.13
2019-02-26T15:50:40.248Z,35.83
2019-02-26T15:53:11.994Z,29.77
2019-02-26T15:55:43.923Z,35.33
2019-02-26T15:58:15.525Z,43.03
2019-02-26T16:00:46.894Z,45.75
2019-02-26T16:03:18.607Z,39.50
2019-02-26T16:05:50.545Z,47.40
2019-02-26T16:08:21.698Z,81.78
2019-02-26T16:10:52.864Z,84.42
2019-02-26T16:13:24.271Z,54.03
2019-02-26T16:15:55.660Z,48.07
2019-02-26T16:18:27.653Z,51.43
2019-02-26T16:20:59.990Z,78.80
2019-02-26T16:23:31.373Z,58.93
2019-02-26T16:26:02.726Z,55.70
2019-02-26T16:28:34.075Z,47.67
2019-02-26T16:31:06.470Z,37.57
2019-02-26T16:33:38.016Z,39.35
2019-02-26T16:36:09.402Z,38.80
2019-02-26T16:38:40.545Z,40.30
2019-02-26T16:41:11.908Z,44.70
2019-02-26T16:43:43.141Z,51.70
2019-02-26T16:46:14.356Z,48.50
2019-02-26T16:48:46.026Z,52.38
2019-02-26T16:51:21.020Z,39.18
2019-02-26T16:53:50.022Z,45.40
2019-02-26T16:56:21.855Z,48.58
2019-02-26T16:58:54.588Z,60.10
2019-02-26T17:01:28.572Z,57.35
2019-02-26T17:04:00.048Z,49.65
2019-02-26T17:06:31.568Z,41.33
2019-02-26T17:09:02.938Z,49.90
2019-02-26T17:11:35.910Z,50.12
2019-02-26T17:14:07.470Z,48.35
2019-02-26T17:16:38.783Z,40.08
2019-02-26T17:19:10.613Z,48.23
2019-02-26T17:21:42.518Z,47.60
2019-02-26T17:24:14.190Z,60.57
2019-02-26T17:26:45.448Z,58.23
2019-02-26T17:29:19.603Z,51.40
2019-02-26T17:31:50.625Z,44.70
2019-02-26T17:34:23.525Z,44.55
2019-02-26T17:36:55.094Z,40.77
2019-02-26T17:39:28.637Z,40.28
2019-02-26T17:41:59.577Z,42.20
2019-02-26T17:44:30.882Z,45.08
2019-02-26T17:47:01.982Z,39.78
2019-02-26T17:49:33.626Z,46.37
2019-02-26T17:52:06.592Z,41.55
2019-02-26T17:54:37.816Z,45.60
2019-02-26T17:57:09.255Z,47.70
2019-02-26T17:59:40.366Z,44.57
2019-02-26T18:02:11.807Z,65.47
2019-02-26T18:04:43.253Z,54.53
2019-02-26T18:07:14.598Z,57.98
2019-02-26T18:09:45.700Z,64.05
2019-02-26T18:12:17.050Z,62.15
2019-02-26T18:14:48.277Z,54.73
2019-02-26T18:17:19.517Z,51.95
2019-02-26T18:19:50.784Z,61.23
2019-02-26T18:22:23.095Z,52.37
2019-02-26T18:24:54.609Z,45.37
2019-02-26T18:27:27.739Z,38.85
2019-02-26T18:29:59.251Z,34.40
2019-02-26T18:32:30.365Z,35.13
2019-02-26T18:35:01.878Z,34.58
2019-02-26T18:37:33.410Z,38.17
2019-02-26T18:40:04.958Z,38.13
2019-02-26T18:42:36.225Z,36.80
2019-02-26T18:45:11.926Z,45.83
2019-02-26T18:47:43.409Z,47.40
2019-02-26T18:50:15.280Z,45.38
2019-02-26T18:52:46.603Z,46.00
2019-02-26T18:55:18.669Z,40.43
2019-02-26T18:57:50.170Z,42.17
2019-02-26T19:00:25.698Z,48.23
2019-02-26T19:02:56.690Z,47.27
2019-02-26T19:05:28.211Z,54.10
2019-02-26T19:07:59.574Z,64.35
2019-02-26T19:10:31.696Z,62.03
2019-02-26T19:13:04.129Z,96.80
2019-02-26T19:15:35.882Z,88.03
2019-02-26T19:18:07.143Z,73.55
2019-02-26T19:20:38.381Z,85.60
2019-02-26T19:23:09.652Z,85.20
2019-02-26T19:25:41.659Z,85.53
2019-02-26T19:28:13.575Z,74.90
2019-02-26T19:30:45.021Z,62.38
2019-02-26T19:33:18.759Z,62.38
2019-02-26T19:35:52.360Z,57.93
2019-02-26T19:38:27.263Z,55.08
2019-02-26T19:40:57.976Z,56.25
2019-02-26T19:43:40.612Z,60.17
2019-02-26T19:46:16.914Z,55.00
2019-02-26T19:48:46.603Z,58.40
2019-02-26T19:51:21.861Z,51.10
2019-02-26T19:53:52.141Z,56.20
2019-02-26T19:56:24.360Z,64.53
2019-02-26T19:58:57.548Z,126.53
2019-02-26T20:01:30.343Z,101.67
2019-02-26T20:04:01.504Z,87.75
2019-02-26T20:06:33.102Z,88.80
2019-02-26T20:09:06.432Z,81.90
2019-02-26T20:11:39.587Z,92.33
2019-02-26T20:14:11.668Z,82.70
2019-02-26T20:16:44.321Z,63.85
2019-02-26T20:19:15.936Z,61.68
2019-02-26T20:21:51.421Z,52.53
2019-02-26T20:24:20.173Z,58.70
2019-02-26T20:26:51.534Z,51.25
2019-02-26T20:29:22.892Z,55.95
2019-02-26T20:31:55.766Z,52.35
2019-02-26T20:34:27.192Z,46.48
2019-02-26T20:36:58.480Z,51.33
2019-02-26T20:39:29.806Z,45.70
2019-02-26T20:42:01.225Z,57.33
2019-02-26T20:44:32.577Z,45.25
2019-02-26T20:47:04.108Z,57.17
2019-02-26T20:49:35.404Z,53.58
2019-02-26T20:52:08.739Z,57.48
2019-02-26T20:54:39.998Z,53.75
2019-02-26T20:57:11.188Z,50.88
2019-02-26T20:59:42.401Z,61.30
2019-02-26T21:02:14.471Z,61.50
2019-02-26T21:04:45.802Z,61.85
2019-02-26T21:07:16.924Z,65.00
2019-02-26T21:09:48.134Z,69.32
2019-02-26T21:12:19.446Z,79.25
2019-02-26T21:14:50.599Z,85.80
2019-02-26T21:17:25.621Z,80.50
2019-02-26T21:19:54.989Z,78.37
2019-02-26T21:22:26.353Z,173.20
2019-02-26T21:24:57.651Z,105.80
2019-02-26T21:27:28.880Z,93.72
2019-02-26T21:30:00.202Z,89.30
2019-02-26T21:32:31.398Z,94.52
2019-02-26T21:35:02.746Z,84.62
2019-02-26T21:37:33.901Z,74.70
2019-02-26T21:40:07.152Z,84.67
2019-02-26T21:42:38.402Z,89.92
2019-02-26T21:45:15.101Z,85.83
2019-02-26T21:47:43.576Z,85.20
2019-02-26T21:50:14.959Z,82.92
2019-02-26T21:52:59.101Z,75.12
2019-02-26T21:55:19.222Z,75.65
2019-02-26T21:57:54.560Z,68.67
2019-02-26T22:00:24.595Z,77.53
2019-02-26T22:02:55.898Z,79.22
2019-02-26T22:05:27.154Z,89.37
2019-02-26T22:07:58.445Z,100.35
2019-02-26T22:10:30.002Z,79.27
2019-02-26T22:13:01.358Z,76.10
2019-02-26T22:15:33.490Z,66.82
2019-02-26T22:18:04.917Z,63.65
2019-02-26T22:20:36.753Z,69.82
2019-02-26T22:23:08.059Z,64.65
2019-02-26T22:25:39.311Z,62.05
2019-02-26T22:28:10.720Z,64.00
2019-02-26T22:30:42.417Z,63.30
2019-02-26T22:33:13.618Z,62.78
2019-02-26T22:35:44.767Z,60.85
2019-02-26T22:38:17.212Z,58.48
2019-02-26T22:40:48.434Z,58.83
2019-02-26T22:43:19.716Z,58.85
2019-02-26T22:45:54.217Z,55.60
2019-02-26T22:48:25.499Z,50.03
2019-02-26T22:50:59.597Z,48.05
2019-02-26T22:53:29.647Z,42.83
2019-02-26T22:56:00.891Z,44.03
2019-02-26T22:58:35.631Z,39.38
2019-02-26T23:01:30.093Z,37.00
2019-02-26T23:03:56.029Z,35.43
2019-02-26T23:06:29.540Z,42.60
2019-02-26T23:09:00.647Z,30.62
2019-02-26T23:11:34.202Z,28.15
2019-02-26T23:14:05.893Z,31.52
2019-02-26T23:16:37.385Z,33.63
2019-02-26T23:19:09.987Z,29.10
2019-02-26T23:21:43.175Z,32.45
2019-02-26T23:24:14.934Z,29.55
2019-02-26T23:26:46.350Z,29.20
2019-02-26T23:29:17.725Z,27.52
2019-02-26T23:31:49.512Z,27.75
2019-02-26T23:34:22.570Z,30.17
2019-02-26T23:36:53.970Z,28.50
2019-02-26T23:39:26.004Z,26.15
2019-02-26T23:41:58.770Z,26.95
2019-02-26T23:44:31.213Z,30.50
2019-02-26T23:47:02.695Z,27.70
2019-02-26T23:49:37.793Z,25.02
2019-02-26T23:52:09.137Z,25.48
2019-02-26T23:54:40.660Z,27.15
2019-02-26T23:57:30.525Z,28.07
